createdAt,value
2022-07-26T00:01:32.187Z,20.80
2022-07-26T00:03:59.993Z,20.70
2022-07-26T00:06:27.396Z,20.70
2022-07-26T00:08:54.607Z,20.60
2022-07-26T00:11:22.294Z,20.60
2022-07-26T00:13:49.390Z,20.60
2022-07-26T00:16:16.731Z,20.60
2022-07-26T00:18:44.258Z,20.50
2022-07-26T00:21:11.792Z,20.50
2022-07-26T00:23:39.320Z,20.40
2022-07-26T00:26:06.380Z,20.40
2022-07-26T00:28:33.386Z,20.30
2022-07-26T00:31:01.155Z,20.20
2022-07-26T00:33:28.201Z,20.20
2022-07-26T00:35:55.294Z,20.10
2022-07-26T00:38:22.213Z,20.10
2022-07-26T00:40:49.165Z,20.10
2022-07-26T00:43:16.276Z,20.00
2022-07-26T00:45:43.390Z,19.90
2022-07-26T00:48:10.409Z,19.90
2022-07-26T00:50:37.529Z,19.90
2022-07-26T00:53:04.530Z,19.90
2022-07-26T00:55:34.269Z,19.80
2022-07-26T00:58:02.139Z,19.80
2022-07-26T01:00:29.373Z,19.80
2022-07-26T01:02:57.154Z,19.70
2022-07-26T01:05:24.658Z,19.70
2022-07-26T01:07:53.032Z,19.60
2022-07-26T01:10:20.468Z,19.60
2022-07-26T01:12:47.485Z,19.70
2022-07-26T01:15:15.851Z,19.60
2022-07-26T01:17:43.357Z,19.60
2022-07-26T01:20:12.346Z,19.60
2022-07-26T01:22:39.340Z,19.60
2022-07-26T01:25:07.265Z,19.40
2022-07-26T01:27:39.101Z,19.50
2022-07-26T01:30:09.060Z,19.50
2022-07-26T01:32:36.258Z,19.50
2022-07-26T01:35:04.780Z,19.50
2022-07-26T01:37:31.844Z,19.60
2022-07-26T01:39:58.723Z,19.60
2022-07-26T01:42:25.557Z,19.70
2022-07-26T01:44:52.519Z,20.00
2022-07-26T01:47:19.438Z,19.90
2022-07-26T01:49:46.338Z,20.00
2022-07-26T01:52:13.296Z,20.00
2022-07-26T01:54:40.199Z,19.90
2022-07-26T01:57:07.180Z,20.20
2022-07-26T01:59:34.047Z,20.20
2022-07-26T02:02:01.121Z,20.20
2022-07-26T02:04:46.582Z,20.20
2022-07-26T02:07:13.619Z,20.10
2022-07-26T02:09:40.848Z,20.20
2022-07-26T02:12:08.379Z,20.20
2022-07-26T02:14:35.321Z,20.20
2022-07-26T02:17:02.807Z,20.20
2022-07-26T02:19:30.601Z,20.30
2022-07-26T02:21:58.432Z,20.20
2022-07-26T02:24:28.912Z,20.20
2022-07-26T02:26:57.254Z,20.20
2022-07-26T02:29:24.398Z,20.20
2022-07-26T02:31:52.175Z,20.20
2022-07-26T02:34:19.713Z,20.20
2022-07-26T02:36:46.843Z,20.20
2022-07-26T02:39:14.432Z,20.20
2022-07-26T02:41:41.387Z,20.20
2022-07-26T02:44:09.066Z,20.30
2022-07-26T02:46:37.471Z,20.20
2022-07-26T02:49:04.599Z,20.20
2022-07-26T02:51:31.508Z,20.20
2022-07-26T02:53:58.392Z,20.10
2022-07-26T02:56:25.413Z,20.10
2022-07-26T02:58:52.430Z,20.10
2022-07-26T03:01:19.553Z,20.10
2022-07-26T03:03:50.558Z,20.10
2022-07-26T03:06:19.143Z,20.10
2022-07-26T03:08:46.653Z,20.10
2022-07-26T03:11:13.761Z,20.10
2022-07-26T03:13:40.954Z,20.10
2022-07-26T03:16:08.485Z,20.10
2022-07-26T03:18:35.867Z,20.20
2022-07-26T03:21:03.021Z,20.10
2022-07-26T03:23:33.383Z,20.10
2022-07-26T03:26:01.804Z,20.10
2022-07-26T03:28:33.343Z,20.10
2022-07-26T03:31:00.786Z,20.10
2022-07-26T03:33:28.269Z,20.10
2022-07-26T03:35:55.222Z,20.00
2022-07-26T03:38:22.315Z,20.00
2022-07-26T03:40:49.260Z,20.10
2022-07-26T03:43:18.946Z,20.10
2022-07-26T03:45:48.318Z,20.20
2022-07-26T03:48:15.395Z,20.10
2022-07-26T03:50:43.039Z,20.20
2022-07-26T03:53:10.036Z,20.20
2022-07-26T03:55:55.338Z,20.20
2022-07-26T03:58:22.283Z,20.20
2022-07-26T04:00:49.359Z,20.20
2022-07-26T04:03:16.306Z,20.20
2022-07-26T04:05:48.975Z,20.20
2022-07-26T04:08:16.848Z,20.30
2022-07-26T04:10:51.118Z,20.30
2022-07-26T04:13:19.807Z,20.40
2022-07-26T04:15:46.778Z,20.40
2022-07-26T04:18:14.326Z,20.10
2022-07-26T04:20:41.861Z,20.50
2022-07-26T04:23:11.918Z,20.50
2022-07-26T04:25:41.312Z,20.50
2022-07-26T04:28:09.342Z,20.40
2022-07-26T04:30:36.432Z,20.40
2022-07-26T04:33:04.220Z,20.40
2022-07-26T04:35:31.623Z,20.40
2022-07-26T04:37:58.775Z,20.40
2022-07-26T04:40:28.430Z,20.40
2022-07-26T04:42:57.028Z,20.50
2022-07-26T04:45:23.963Z,20.70
2022-07-26T04:47:51.324Z,20.90
2022-07-26T04:50:19.692Z,21.20
2022-07-26T04:52:47.191Z,21.60
2022-07-26T04:55:14.790Z,22.10
2022-07-26T04:57:42.052Z,22.50
2022-07-26T05:00:26.482Z,22.70
2022-07-26T05:02:56.601Z,22.80
2022-07-26T05:05:25.274Z,22.90
2022-07-26T05:07:54.660Z,23.10
2022-07-26T05:10:27.833Z,23.40
2022-07-26T05:12:54.774Z,24.30
2022-07-26T05:15:21.679Z,25.00
2022-07-26T05:17:49.720Z,25.90
2022-07-26T05:20:17.363Z,27.00
2022-07-26T05:22:45.191Z,28.10
2022-07-26T05:25:12.044Z,29.00
2022-07-26T05:27:40.594Z,29.80
2022-07-26T05:30:09.714Z,30.40
2022-07-26T05:32:37.136Z,31.20
2022-07-26T05:35:04.664Z,31.80
2022-07-26T05:37:31.627Z,32.00
2022-07-26T05:39:58.699Z,32.40
2022-07-26T05:42:25.889Z,32.50
2022-07-26T05:44:52.998Z,32.70
2022-07-26T05:47:23.137Z,32.80
2022-07-26T05:49:50.080Z,33.00
2022-07-26T05:52:17.052Z,33.10
2022-07-26T05:54:43.973Z,33.20
2022-07-26T05:57:10.931Z,33.60
2022-07-26T05:59:37.946Z,34.20
2022-07-26T06:02:05.369Z,34.30
2022-07-26T06:04:32.424Z,34.10
2022-07-26T06:06:59.418Z,34.00
2022-07-26T06:09:27.004Z,34.50
2022-07-26T06:11:54.128Z,35.10
2022-07-26T06:14:21.144Z,35.60
2022-07-26T06:16:48.659Z,36.00
2022-07-26T06:19:15.846Z,36.10
2022-07-26T06:21:42.964Z,35.40
2022-07-26T06:24:10.629Z,34.70
2022-07-26T06:26:38.798Z,33.80
2022-07-26T06:29:05.923Z,33.00
2022-07-26T06:31:33.023Z,32.80
2022-07-26T06:34:01.960Z,33.20
2022-07-26T06:36:31.067Z,33.40
2022-07-26T06:38:59.177Z,33.40
2022-07-26T06:41:26.663Z,33.20
2022-07-26T06:43:53.781Z,33.40
2022-07-26T06:46:21.213Z,33.30
2022-07-26T06:48:52.686Z,32.90
2022-07-26T06:51:20.887Z,32.30
2022-07-26T06:53:48.177Z,31.70
2022-07-26T06:56:17.653Z,30.90
2022-07-26T06:58:45.078Z,29.70
2022-07-26T07:01:12.431Z,28.90
2022-07-26T07:03:39.564Z,28.30
2022-07-26T07:06:06.764Z,27.70
2022-07-26T07:08:33.782Z,27.20
2022-07-26T07:11:02.137Z,27.00
2022-07-26T07:13:30.740Z,26.60
2022-07-26T07:15:57.699Z,26.40
2022-07-26T07:18:24.664Z,26.30
2022-07-26T07:20:51.651Z,26.20
2022-07-26T07:23:22.200Z,26.60
2022-07-26T07:25:49.970Z,26.90
2022-07-26T07:28:18.282Z,26.90
2022-07-26T07:30:47.511Z,26.60
2022-07-26T07:33:22.346Z,26.50
2022-07-26T07:35:51.213Z,26.30
2022-07-26T07:38:18.457Z,26.10
2022-07-26T07:40:46.197Z,26.10
2022-07-26T07:43:13.113Z,26.20
2022-07-26T07:45:40.193Z,26.20
2022-07-26T07:48:07.138Z,26.40
2022-07-26T07:50:34.375Z,26.60
2022-07-26T07:53:02.310Z,26.30
2022-07-26T07:55:41.099Z,27.30
2022-07-26T07:58:11.252Z,29.50
2022-07-26T08:00:38.873Z,31.80
2022-07-26T08:03:05.933Z,32.20
2022-07-26T08:05:33.014Z,32.30
2022-07-26T08:08:00.108Z,32.00
2022-07-26T08:10:29.204Z,31.70
2022-07-26T08:12:56.128Z,31.40
2022-07-26T08:15:23.469Z,31.00
2022-07-26T08:17:54.710Z,30.40
2022-07-26T08:20:23.473Z,30.90
2022-07-26T08:22:50.882Z,31.30
2022-07-26T08:25:18.057Z,31.00
2022-07-26T08:27:51.113Z,30.40
2022-07-26T08:30:30.291Z,29.80
2022-07-26T08:32:57.265Z,29.30
2022-07-26T08:35:24.307Z,28.90
2022-07-26T08:37:51.327Z,28.70
2022-07-26T08:40:18.619Z,28.30
2022-07-26T08:42:53.507Z,28.10
2022-07-26T08:45:25.271Z,27.90
2022-07-26T08:48:16.182Z,27.70
2022-07-26T08:50:41.003Z,27.40
2022-07-26T08:53:09.455Z,26.90
2022-07-26T08:56:04.240Z,26.50
2022-07-26T08:58:24.199Z,26.40
2022-07-26T09:01:09.054Z,26.20
2022-07-26T09:03:39.069Z,26.20
2022-07-26T09:06:12.489Z,26.30
2022-07-26T09:08:39.488Z,26.10
2022-07-26T09:11:24.757Z,26.00
2022-07-26T09:13:51.804Z,25.80
2022-07-26T09:16:21.942Z,25.60
2022-07-26T09:18:48.956Z,25.50
2022-07-26T09:21:36.035Z,25.50
2022-07-26T09:24:03.140Z,25.40
2022-07-26T09:26:30.272Z,25.50
2022-07-26T09:29:12.346Z,25.60
2022-07-26T09:31:39.928Z,25.60
2022-07-26T09:34:08.310Z,25.40
2022-07-26T09:36:54.337Z,25.00
2022-07-26T09:39:22.772Z,24.60
2022-07-26T09:44:57.630Z,23.80
2022-07-26T09:47:39.200Z,23.40
2022-07-26T09:50:28.644Z,23.00
2022-07-26T09:53:12.890Z,22.70
2022-07-26T09:55:45.938Z,22.60
2022-07-26T09:58:14.501Z,22.50
2022-07-26T10:00:42.212Z,22.60
2022-07-26T10:03:09.625Z,22.90
2022-07-26T10:05:37.795Z,23.30
2022-07-26T10:08:06.321Z,23.70
2022-07-26T10:11:01.968Z,23.90
2022-07-26T10:13:30.393Z,24.00
2022-07-26T10:15:57.642Z,24.10
2022-07-26T10:18:38.277Z,24.30
2022-07-26T10:21:26.365Z,24.60
2022-07-26T10:24:00.541Z,25.00
2022-07-26T10:26:36.354Z,25.20
2022-07-26T10:29:21.831Z,25.50
2022-07-26T10:32:16.013Z,25.70
2022-07-26T10:34:44.222Z,25.70
2022-07-26T10:37:20.793Z,25.60
2022-07-26T10:39:51.308Z,25.60
2022-07-26T10:42:18.280Z,25.70
2022-07-26T10:44:45.373Z,25.90
2022-07-26T10:47:18.525Z,26.30
2022-07-26T10:49:59.620Z,26.60
2022-07-26T10:52:29.118Z,26.70
2022-07-26T10:55:04.743Z,26.90
2022-07-26T10:57:37.370Z,26.80
2022-07-26T11:00:14.899Z,26.90
2022-07-26T11:02:43.892Z,26.70
2022-07-26T11:05:15.043Z,26.30
2022-07-26T11:07:48.009Z,26.20
2022-07-26T11:10:15.033Z,26.30
2022-07-26T11:12:41.981Z,26.60
2022-07-26T11:15:19.606Z,26.50
2022-07-26T11:17:46.453Z,26.30
2022-07-26T11:20:29.250Z,26.00
2022-07-26T11:22:56.897Z,25.90
2022-07-26T11:25:23.727Z,25.80
2022-07-26T11:28:02.165Z,25.50
2022-07-26T11:30:32.047Z,25.20
2022-07-26T11:32:59.274Z,25.10
2022-07-26T11:35:29.846Z,25.10
2022-07-26T11:38:07.839Z,25.00
2022-07-26T11:40:46.018Z,24.90
2022-07-26T11:43:13.340Z,24.90
2022-07-26T11:45:40.690Z,24.90
2022-07-26T11:48:07.950Z,25.10
2022-07-26T11:50:34.912Z,25.40
2022-07-26T11:53:01.879Z,25.70
2022-07-26T11:55:30.307Z,25.90
2022-07-26T11:58:04.943Z,26.30
2022-07-26T12:00:32.083Z,26.60
2022-07-26T12:02:59.226Z,26.80
2022-07-26T12:05:27.939Z,27.00
2022-07-26T12:08:04.292Z,27.00
2022-07-26T12:10:31.737Z,27.00
2022-07-26T12:13:13.660Z,26.80
2022-07-26T12:15:48.446Z,26.70
2022-07-26T12:18:29.864Z,26.40
2022-07-26T12:21:07.859Z,26.10
2022-07-26T12:23:41.821Z,25.90
2022-07-26T12:26:23.245Z,25.90
2022-07-26T12:28:50.290Z,25.70
2022-07-26T12:31:30.357Z,25.60
2022-07-26T12:33:58.109Z,25.70
2022-07-26T12:36:27.424Z,25.90
2022-07-26T12:38:56.813Z,26.20
2022-07-26T12:41:37.049Z,26.50
2022-07-26T12:44:05.830Z,26.50
2022-07-26T12:46:34.174Z,26.60
2022-07-26T12:49:01.563Z,26.80
2022-07-26T12:51:28.721Z,27.10
2022-07-26T12:53:55.684Z,27.10
2022-07-26T12:56:22.680Z,27.00
2022-07-26T12:58:49.679Z,27.10
2022-07-26T13:01:16.701Z,27.10
2022-07-26T13:03:44.355Z,27.00
2022-07-26T13:06:11.468Z,27.10
2022-07-26T13:08:38.515Z,27.30
2022-07-26T13:11:05.505Z,27.40
2022-07-26T13:13:32.438Z,27.50
2022-07-26T13:15:59.321Z,27.60
2022-07-26T13:18:26.428Z,27.40
2022-07-26T13:20:53.389Z,27.20
2022-07-26T13:23:22.092Z,26.90
2022-07-26T13:25:52.371Z,26.40
2022-07-26T13:28:19.787Z,26.00
2022-07-26T13:30:46.827Z,25.70
2022-07-26T13:33:13.764Z,25.40
2022-07-26T13:35:42.424Z,25.20
2022-07-26T13:38:09.550Z,25.10
2022-07-26T13:40:37.089Z,25.10
2022-07-26T13:43:04.807Z,25.10
2022-07-26T13:45:31.738Z,25.20
2022-07-26T13:47:59.783Z,25.30
2022-07-26T13:50:28.212Z,25.40
2022-07-26T13:52:56.637Z,25.50
2022-07-26T13:55:24.356Z,25.60
2022-07-26T13:57:56.635Z,25.70
2022-07-26T14:00:29.294Z,25.70
2022-07-26T14:02:58.204Z,25.90
2022-07-26T14:05:25.962Z,26.10
2022-07-26T14:07:53.149Z,26.20
2022-07-26T14:10:21.541Z,26.40
2022-07-26T14:12:48.635Z,26.60
2022-07-26T14:15:21.624Z,26.70
2022-07-26T14:17:50.129Z,26.80
2022-07-26T14:20:17.464Z,26.80
2022-07-26T14:22:44.945Z,26.90
2022-07-26T14:25:12.223Z,27.00
2022-07-26T14:27:39.161Z,27.10
2022-07-26T14:30:06.653Z,27.10
2022-07-26T14:32:33.721Z,27.10
2022-07-26T14:35:00.726Z,27.10
2022-07-26T14:37:43.204Z,26.90
2022-07-26T14:40:13.552Z,26.70
2022-07-26T14:42:40.603Z,26.40
2022-07-26T14:45:09.409Z,26.00
2022-07-26T14:47:36.842Z,25.70
2022-07-26T14:50:07.096Z,25.50
2022-07-26T14:52:41.894Z,25.40
2022-07-26T14:55:10.138Z,25.20
2022-07-26T14:57:39.063Z,25.10
2022-07-26T15:00:13.093Z,25.10
2022-07-26T15:02:44.979Z,25.20
2022-07-26T15:05:13.538Z,25.20
2022-07-26T15:07:41.639Z,25.40
2022-07-26T15:10:10.899Z,25.50
2022-07-26T15:12:38.235Z,25.60
2022-07-26T15:15:07.504Z,25.50
2022-07-26T15:17:34.954Z,25.50
2022-07-26T15:20:02.355Z,25.20
2022-07-26T15:22:29.412Z,25.00
2022-07-26T15:24:56.332Z,24.90
2022-07-26T15:27:23.289Z,25.00
2022-07-26T15:29:50.912Z,25.10
2022-07-26T15:32:19.697Z,25.20
2022-07-26T15:34:46.707Z,25.30
2022-07-26T15:37:13.765Z,25.50
2022-07-26T15:39:40.685Z,25.60
2022-07-26T15:42:09.266Z,25.70
2022-07-26T15:44:38.754Z,25.80
2022-07-26T15:47:05.869Z,25.80
2022-07-26T15:49:34.148Z,25.80
2022-07-26T15:52:09.550Z,25.70
2022-07-26T15:54:36.632Z,25.60
2022-07-26T15:57:03.652Z,25.70
2022-07-26T15:59:30.577Z,25.80
2022-07-26T16:01:58.213Z,26.00
2022-07-26T16:04:25.203Z,25.90
2022-07-26T16:06:52.295Z,25.80
2022-07-26T16:09:19.849Z,25.80
2022-07-26T16:11:48.520Z,25.70
2022-07-26T16:14:16.744Z,25.60
2022-07-26T16:16:45.002Z,25.40
2022-07-26T16:19:12.535Z,25.10
2022-07-26T16:21:40.443Z,24.90
2022-07-26T16:24:08.147Z,24.70
2022-07-26T16:26:35.993Z,24.50
2022-07-26T16:29:04.293Z,24.30
2022-07-26T16:31:31.393Z,24.30
2022-07-26T16:33:58.444Z,24.20
2022-07-26T16:36:25.431Z,24.20
2022-07-26T16:38:57.991Z,24.20
2022-07-26T16:41:24.944Z,24.20
2022-07-26T16:43:51.898Z,24.10
2022-07-26T16:46:21.417Z,24.00
2022-07-26T16:48:48.764Z,23.90
2022-07-26T16:51:16.701Z,23.90
2022-07-26T16:53:45.254Z,23.90
2022-07-26T16:56:12.216Z,23.90
2022-07-26T16:58:39.098Z,23.90
2022-07-26T17:01:06.099Z,23.80
2022-07-26T17:03:33.056Z,23.70
2022-07-26T17:06:06.052Z,23.70
2022-07-26T17:08:34.351Z,23.60
2022-07-26T17:11:01.446Z,23.60
2022-07-26T17:13:28.361Z,23.50
2022-07-26T17:15:55.382Z,23.50
2022-07-26T17:18:22.485Z,23.40
2022-07-26T17:20:49.476Z,23.40
2022-07-26T17:23:18.454Z,23.40
2022-07-26T17:25:45.603Z,23.30
2022-07-26T17:28:12.594Z,23.10
2022-07-26T17:30:39.755Z,23.10
2022-07-26T17:33:06.721Z,23.10
2022-07-26T17:35:33.754Z,23.20
2022-07-26T17:38:00.659Z,23.20
2022-07-26T17:40:29.317Z,23.20
2022-07-26T17:42:56.609Z,23.10
2022-07-26T17:45:23.525Z,23.00
2022-07-26T17:47:50.477Z,23.00
2022-07-26T17:53:04.495Z,22.90
2022-07-26T17:55:31.480Z,22.80
2022-07-26T17:57:58.426Z,22.70
2022-07-26T18:00:28.685Z,22.60
2022-07-26T18:02:56.858Z,22.60
2022-07-26T18:05:28.626Z,22.50
2022-07-26T18:08:00.365Z,22.40
2022-07-26T18:10:28.121Z,22.30
2022-07-26T18:12:55.214Z,22.30
2022-07-26T18:15:22.378Z,22.30
2022-07-26T18:17:49.321Z,22.20
2022-07-26T18:20:16.410Z,22.20
2022-07-26T18:22:45.852Z,22.20
2022-07-26T18:25:17.259Z,22.10
2022-07-26T18:27:44.334Z,22.10
2022-07-26T18:30:11.865Z,22.10
2022-07-26T18:32:38.950Z,22.00
2022-07-26T18:35:06.457Z,22.00
2022-07-26T18:37:33.566Z,21.90
2022-07-26T18:40:00.959Z,21.80
2022-07-26T18:42:27.903Z,21.80
2022-07-26T18:44:54.780Z,21.80
2022-07-26T18:47:22.303Z,21.70
2022-07-26T18:49:49.305Z,21.70
2022-07-26T18:52:17.319Z,21.70
2022-07-26T18:54:56.209Z,21.70
2022-07-26T18:57:23.148Z,21.70
2022-07-26T18:59:50.178Z,21.70
2022-07-26T19:02:17.275Z,21.60
2022-07-26T19:04:44.260Z,21.60
2022-07-26T19:07:11.154Z,21.50
2022-07-26T19:09:38.052Z,21.50
2022-07-26T19:12:05.085Z,21.60
2022-07-26T19:14:32.046Z,21.50
2022-07-26T19:16:58.947Z,21.50
2022-07-26T19:19:25.976Z,21.50
2022-07-26T19:21:53.037Z,21.50
2022-07-26T19:24:20.089Z,21.40
2022-07-26T19:26:47.060Z,21.40
2022-07-26T19:29:14.477Z,21.30
2022-07-26T19:31:45.600Z,21.30
2022-07-26T19:34:15.315Z,21.20
2022-07-26T19:36:42.212Z,21.10
2022-07-26T19:39:09.468Z,21.10
2022-07-26T19:41:36.741Z,21.00
2022-07-26T19:44:03.928Z,21.00
2022-07-26T19:46:30.936Z,20.90
2022-07-26T19:48:58.029Z,20.90
2022-07-26T19:51:25.015Z,20.90
2022-07-26T19:53:51.993Z,20.80
2022-07-26T19:56:19.009Z,20.80
2022-07-26T19:58:46.333Z,20.80
2022-07-26T20:01:13.376Z,20.80
2022-07-26T20:03:40.451Z,20.70
2022-07-26T20:06:07.503Z,20.80
2022-07-26T20:08:34.468Z,20.80
2022-07-26T20:11:01.509Z,20.70
2022-07-26T20:13:28.607Z,20.70
2022-07-26T20:15:55.481Z,20.60
2022-07-26T20:18:24.788Z,20.60
2022-07-26T20:20:56.330Z,20.50
2022-07-26T20:23:24.147Z,20.50
2022-07-26T20:25:51.534Z,20.50
2022-07-26T20:28:18.479Z,20.50
2022-07-26T20:30:48.245Z,20.50
2022-07-26T20:33:15.476Z,20.50
2022-07-26T20:35:42.393Z,20.50
2022-07-26T20:38:09.300Z,20.40
2022-07-26T20:40:36.437Z,20.40
2022-07-26T20:43:04.935Z,20.30
2022-07-26T20:45:31.916Z,20.30
2022-07-26T20:47:59.382Z,20.30
2022-07-26T20:50:26.439Z,20.20
2022-07-26T20:52:53.385Z,20.20
2022-07-26T20:55:20.332Z,20.20
2022-07-26T20:57:47.741Z,20.10
2022-07-26T21:00:15.372Z,20.10
2022-07-26T21:02:42.780Z,20.00
2022-07-26T21:05:10.262Z,19.90
2022-07-26T21:07:55.647Z,19.90
2022-07-26T21:10:25.319Z,19.90
2022-07-26T21:12:52.985Z,19.80
2022-07-26T21:15:20.055Z,19.90
2022-07-26T21:17:46.974Z,19.80
2022-07-26T21:20:13.864Z,19.70
2022-07-26T21:22:40.867Z,19.70
2022-07-26T21:25:08.230Z,19.70
2022-07-26T21:27:35.244Z,19.60
2022-07-26T21:30:02.794Z,19.60
2022-07-26T21:32:31.759Z,19.50
2022-07-26T21:34:59.305Z,19.40
2022-07-26T21:37:26.779Z,19.20
2022-07-26T21:39:53.752Z,19.10
2022-07-26T21:42:20.659Z,19.00
2022-07-26T21:44:47.576Z,18.80
2022-07-26T21:47:14.601Z,18.70
2022-07-26T21:49:41.662Z,18.60
2022-07-26T21:52:08.582Z,18.50
2022-07-26T21:54:35.580Z,18.50
2022-07-26T21:57:02.492Z,18.60
2022-07-26T21:59:29.621Z,18.60
2022-07-26T22:01:56.584Z,18.60
2022-07-26T22:04:24.326Z,18.60
2022-07-26T22:06:51.307Z,18.60
2022-07-26T22:09:18.242Z,18.60
2022-07-26T22:11:45.198Z,18.60
2022-07-26T22:14:12.224Z,18.50
2022-07-26T22:16:39.147Z,18.50
2022-07-26T22:19:06.536Z,18.50
2022-07-26T22:21:33.431Z,18.60
2022-07-26T22:24:00.444Z,18.60
2022-07-26T22:26:31.131Z,18.60
2022-07-26T22:28:58.843Z,18.60
2022-07-26T22:31:26.488Z,18.60
2022-07-26T22:33:53.550Z,18.70
2022-07-26T22:36:20.522Z,18.60
2022-07-26T22:38:47.598Z,18.60
2022-07-26T22:41:14.685Z,18.80
2022-07-26T22:43:41.914Z,18.60
2022-07-26T22:46:09.065Z,18.60
2022-07-26T22:48:38.625Z,18.60
2022-07-26T22:51:06.511Z,18.50
2022-07-26T22:53:33.423Z,18.50
2022-07-26T22:56:00.348Z,18.50
2022-07-26T22:58:27.273Z,18.50
2022-07-26T23:00:54.619Z,18.50
2022-07-26T23:03:21.971Z,18.50
2022-07-26T23:05:50.534Z,18.50
2022-07-26T23:11:06.537Z,18.40
2022-07-26T23:13:33.647Z,18.40
2022-07-26T23:16:01.623Z,18.30
2022-07-26T23:18:30.933Z,18.20
2022-07-26T23:20:58.014Z,18.10
2022-07-26T23:23:29.054Z,18.00
2022-07-26T23:25:57.791Z,17.90
2022-07-26T23:28:36.872Z,17.80
2022-07-26T23:31:10.857Z,17.70
2022-07-26T23:33:52.092Z,17.60
2022-07-26T23:36:26.770Z,17.60
2022-07-26T23:38:55.870Z,17.50
2022-07-26T23:41:23.024Z,17.40
2022-07-26T23:43:50.307Z,17.40
2022-07-26T23:46:17.376Z,17.30
2022-07-26T23:48:44.585Z,17.30
2022-07-26T23:51:11.784Z,17.30
2022-07-26T23:53:38.778Z,17.20
2022-07-26T23:56:05.794Z,17.20
2022-07-26T23:58:32.736Z,17.20
